sensor_id;sensor_type;location;lat;lon;timestamp;temperature;humidity
8372;DHT22;4223;48.724;8.982;2022-07-03T00:01:25;15.30;5.20
8372;DHT22;4223;48.724;8.982;2022-07-03T00:03:52;15.30;33.30
8372;DHT22;4223;48.724;8.982;2022-07-03T00:06:19;15.30;38.40
8372;DHT22;4223;48.724;8.982;2022-07-03T00:08:47;15.30;34.20
8372;DHT22;4223;48.724;8.982;2022-07-03T00:11:15;15.30;18.20
8372;DHT22;4223;48.724;8.982;2022-07-03T00:13:42;15.30;24.10
8372;DHT22;4223;48.724;8.982;2022-07-03T00:16:09;15.20;50.70
8372;DHT22;4223;48.724;8.982;2022-07-03T00:18:36;15.10;26.40
8372;DHT22;4223;48.724;8.982;2022-07-03T00:21:05;15.10;45.20
8372;DHT22;4223;48.724;8.982;2022-07-03T00:23:38;15.10;55.70
8372;DHT22;4223;48.724;8.982;2022-07-03T00:26:08;15.10;60.50
8372;DHT22;4223;48.724;8.982;2022-07-03T00:28:36;15.10;39.10
8372;DHT22;4223;48.724;8.982;2022-07-03T00:31:04;15.10;26.90
8372;DHT22;4223;48.724;8.982;2022-07-03T00:33:33;15.20;18.80
8372;DHT22;4223;48.724;8.982;2022-07-03T00:36:02;15.20;14.00
8372;DHT22;4223;48.724;8.982;2022-07-03T00:38:29;15.20;38.10
8372;DHT22;4223;48.724;8.982;2022-07-03T00:40:56;15.20;31.20
8372;DHT22;4223;48.724;8.982;2022-07-03T00:43:25;15.10;37.60
8372;DHT22;4223;48.724;8.982;2022-07-03T00:45:53;15.10;36.40
8372;DHT22;4223;48.724;8.982;2022-07-03T00:48:20;14.90;44.70
8372;DHT22;4223;48.724;8.982;2022-07-03T00:50:49;15.00;50.80
8372;DHT22;4223;48.724;8.982;2022-07-03T00:53:28;14.90;44.90
8372;DHT22;4223;48.724;8.982;2022-07-03T00:55:56;14.90;74.60
8372;DHT22;4223;48.724;8.982;2022-07-03T00:58:25;15.00;76.50
8372;DHT22;4223;48.724;8.982;2022-07-03T01:00:53;15.00;68.20
8372;DHT22;4223;48.724;8.982;2022-07-03T01:03:25;15.00;53.90
8372;DHT22;4223;48.724;8.982;2022-07-03T01:05:54;14.90;54.30
8372;DHT22;4223;48.724;8.982;2022-07-03T01:08:36;14.90;62.70
8372;DHT22;4223;48.724;8.982;2022-07-03T01:11:09;14.80;77.70
8372;DHT22;4223;48.724;8.982;2022-07-03T01:13:45;14.90;72.30
8372;DHT22;4223;48.724;8.982;2022-07-03T01:16:18;14.90;64.20
8372;DHT22;4223;48.724;8.982;2022-07-03T01:18:50;15.00;67.60
8372;DHT22;4223;48.724;8.982;2022-07-03T01:21:25;15.00;55.00
8372;DHT22;4223;48.724;8.982;2022-07-03T01:24:16;14.90;70.50
8372;DHT22;4223;48.724;8.982;2022-07-03T01:26:46;14.90;64.70
8372;DHT22;4223;48.724;8.982;2022-07-03T01:29:21;14.80;54.00
8372;DHT22;4223;48.724;8.982;2022-07-03T01:31:48;14.80;70.30
8372;DHT22;4223;48.724;8.982;2022-07-03T01:34:19;14.90;79.20
8372;DHT22;4223;48.724;8.982;2022-07-03T01:36:47;14.80;71.80
8372;DHT22;4223;48.724;8.982;2022-07-03T01:39:16;14.80;78.50
8372;DHT22;4223;48.724;8.982;2022-07-03T01:41:47;14.80;55.90
8372;DHT22;4223;48.724;8.982;2022-07-03T01:44:15;14.80;40.60
8372;DHT22;4223;48.724;8.982;2022-07-03T01:46:44;14.80;48.80
8372;DHT22;4223;48.724;8.982;2022-07-03T01:49:13;14.70;46.40
8372;DHT22;4223;48.724;8.982;2022-07-03T01:51:42;14.70;41.70
8372;DHT22;4223;48.724;8.982;2022-07-03T01:54:10;14.70;42.50
8372;DHT22;4223;48.724;8.982;2022-07-03T01:56:37;14.70;25.00
8372;DHT22;4223;48.724;8.982;2022-07-03T01:59:05;14.80;40.70
8372;DHT22;4223;48.724;8.982;2022-07-03T02:01:40;14.80;43.10
8372;DHT22;4223;48.724;8.982;2022-07-03T02:04:15;14.80;51.40
8372;DHT22;4223;48.724;8.982;2022-07-03T02:06:52;14.80;47.30
8372;DHT22;4223;48.724;8.982;2022-07-03T02:09:30;14.80;43.70
8372;DHT22;4223;48.724;8.982;2022-07-03T02:11:58;14.80;30.60
8372;DHT22;4223;48.724;8.982;2022-07-03T02:14:32;14.80;39.40
8372;DHT22;4223;48.724;8.982;2022-07-03T02:17:05;14.80;39.80
8372;DHT22;4223;48.724;8.982;2022-07-03T02:19:39;14.80;50.90
8372;DHT22;4223;48.724;8.982;2022-07-03T02:22:08;14.80;45.40
8372;DHT22;4223;48.724;8.982;2022-07-03T02:24:39;14.80;54.70
8372;DHT22;4223;48.724;8.982;2022-07-03T02:27:12;14.80;52.40
8372;DHT22;4223;48.724;8.982;2022-07-03T02:29:46;14.90;52.50
8372;DHT22;4223;48.724;8.982;2022-07-03T02:32:17;14.90;59.80
8372;DHT22;4223;48.724;8.982;2022-07-03T02:34:52;14.90;49.80
8372;DHT22;4223;48.724;8.982;2022-07-03T02:37:22;14.90;60.60
8372;DHT22;4223;48.724;8.982;2022-07-03T02:39:53;14.80;58.20
8372;DHT22;4223;48.724;8.982;2022-07-03T02:42:28;14.80;54.50
8372;DHT22;4223;48.724;8.982;2022-07-03T02:45:01;14.90;50.50
8372;DHT22;4223;48.724;8.982;2022-07-03T02:47:35;14.90;55.10
8372;DHT22;4223;48.724;8.982;2022-07-03T02:50:04;14.90;45.60
8372;DHT22;4223;48.724;8.982;2022-07-03T02:52:44;15.00;46.50
8372;DHT22;4223;48.724;8.982;2022-07-03T02:55:26;15.00;28.10
8372;DHT22;4223;48.724;8.982;2022-07-03T02:58:05;14.90;24.90
8372;DHT22;4223;48.724;8.982;2022-07-03T03:00:39;14.90;24.50
8372;DHT22;4223;48.724;8.982;2022-07-03T03:03:09;14.90;29.70
8372;DHT22;4223;48.724;8.982;2022-07-03T03:05:41;15.00;34.20
8372;DHT22;4223;48.724;8.982;2022-07-03T03:08:16;15.00;32.70
8372;DHT22;4223;48.724;8.982;2022-07-03T03:10:46;14.90;28.10
8372;DHT22;4223;48.724;8.982;2022-07-03T03:13:15;14.90;14.60
8372;DHT22;4223;48.724;8.982;2022-07-03T03:15:54;14.80;12.50
8372;DHT22;4223;48.724;8.982;2022-07-03T03:18:27;14.60;11.00
8372;DHT22;4223;48.724;8.982;2022-07-03T03:20:58;14.60;34.30
8372;DHT22;4223;48.724;8.982;2022-07-03T03:23:42;14.50;41.30
8372;DHT22;4223;48.724;8.982;2022-07-03T03:26:09;14.40;34.20
8372;DHT22;4223;48.724;8.982;2022-07-03T03:28:36;14.30;46.50
8372;DHT22;4223;48.724;8.982;2022-07-03T03:31:05;14.20;49.70
8372;DHT22;4223;48.724;8.982;2022-07-03T03:33:36;14.20;56.20
8372;DHT22;4223;48.724;8.982;2022-07-03T03:36:05;14.10;67.70
8372;DHT22;4223;48.724;8.982;2022-07-03T03:38:33;14.10;59.30
8372;DHT22;4223;48.724;8.982;2022-07-03T03:41:02;14.10;74.10
8372;DHT22;4223;48.724;8.982;2022-07-03T03:43:29;14.10;80.00
8372;DHT22;4223;48.724;8.982;2022-07-03T03:45:56;14.10;81.40
8372;DHT22;4223;48.724;8.982;2022-07-03T03:48:25;14.20;71.70
8372;DHT22;4223;48.724;8.982;2022-07-03T03:50:52;14.20;70.50
8372;DHT22;4223;48.724;8.982;2022-07-03T03:53:19;14.20;74.80
8372;DHT22;4223;48.724;8.982;2022-07-03T03:55:53;14.30;78.10
8372;DHT22;4223;48.724;8.982;2022-07-03T03:58:20;14.30;68.10
8372;DHT22;4223;48.724;8.982;2022-07-03T04:00:47;14.30;53.40
8372;DHT22;4223;48.724;8.982;2022-07-03T04:03:14;14.30;63.10
8372;DHT22;4223;48.724;8.982;2022-07-03T04:05:42;14.30;56.10
8372;DHT22;4223;48.724;8.982;2022-07-03T04:08:09;14.30;55.70
8372;DHT22;4223;48.724;8.982;2022-07-03T04:10:36;14.30;65.30
8372;DHT22;4223;48.724;8.982;2022-07-03T04:13:02;14.30;54.10
8372;DHT22;4223;48.724;8.982;2022-07-03T04:15:29;14.30;65.90
8372;DHT22;4223;48.724;8.982;2022-07-03T04:17:56;14.20;66.50
8372;DHT22;4223;48.724;8.982;2022-07-03T04:20:24;14.30;65.30
8372;DHT22;4223;48.724;8.982;2022-07-03T04:22:52;14.30;67.90
8372;DHT22;4223;48.724;8.982;2022-07-03T04:25:19;14.30;66.10
8372;DHT22;4223;48.724;8.982;2022-07-03T04:27:46;14.40;61.30
8372;DHT22;4223;48.724;8.982;2022-07-03T04:30:13;14.40;72.80
8372;DHT22;4223;48.724;8.982;2022-07-03T04:32:40;14.40;63.30
8372;DHT22;4223;48.724;8.982;2022-07-03T04:35:07;14.50;61.00
8372;DHT22;4223;48.724;8.982;2022-07-03T04:37:34;14.60;54.30
8372;DHT22;4223;48.724;8.982;2022-07-03T04:40:03;14.70;50.70
8372;DHT22;4223;48.724;8.982;2022-07-03T04:42:30;14.70;48.30
8372;DHT22;4223;48.724;8.982;2022-07-03T04:44:57;14.80;62.60
8372;DHT22;4223;48.724;8.982;2022-07-03T04:47:24;14.80;54.40
8372;DHT22;4223;48.724;8.982;2022-07-03T04:49:51;14.80;54.40
8372;DHT22;4223;48.724;8.982;2022-07-03T04:52:17;14.90;52.20
8372;DHT22;4223;48.724;8.982;2022-07-03T04:54:44;15.00;56.40
8372;DHT22;4223;48.724;8.982;2022-07-03T04:57:12;15.00;48.80
8372;DHT22;4223;48.724;8.982;2022-07-03T04:59:39;15.10;43.40
8372;DHT22;4223;48.724;8.982;2022-07-03T05:02:06;15.20;35.40
8372;DHT22;4223;48.724;8.982;2022-07-03T05:04:33;15.20;22.40
8372;DHT22;4223;48.724;8.982;2022-07-03T05:07:00;15.30;4.90
8372;DHT22;4223;48.724;8.982;2022-07-03T05:09:27;15.40;5.40
8372;DHT22;4223;48.724;8.982;2022-07-03T05:11:54;15.40;1.00
8372;DHT22;4223;48.724;8.982;2022-07-03T05:14:22;15.50;13.30
8372;DHT22;4223;48.724;8.982;2022-07-03T05:16:49;15.60;1.30
8372;DHT22;4223;48.724;8.982;2022-07-03T05:19:16;15.70;1.00
8372;DHT22;4223;48.724;8.982;2022-07-03T05:21:43;15.70;1.00
8372;DHT22;4223;48.724;8.982;2022-07-03T05:24:10;15.80;1.00
8372;DHT22;4223;48.724;8.982;2022-07-03T05:26:36;15.90;1.00
8372;DHT22;4223;48.724;8.982;2022-07-03T05:29:03;15.90;1.00
8372;DHT22;4223;48.724;8.982;2022-07-03T05:31:31;16.00;1.00
8372;DHT22;4223;48.724;8.982;2022-07-03T05:33:58;16.10;1.00
8372;DHT22;4223;48.724;8.982;2022-07-03T05:36:25;16.20;1.00
8372;DHT22;4223;48.724;8.982;2022-07-03T05:38:52;16.30;1.00
8372;DHT22;4223;48.724;8.982;2022-07-03T05:41:36;16.30;1.00
8372;DHT22;4223;48.724;8.982;2022-07-03T05:44:03;16.40;1.00
8372;DHT22;4223;48.724;8.982;2022-07-03T05:46:31;16.50;1.00
8372;DHT22;4223;48.724;8.982;2022-07-03T05:48:58;16.50;1.00
8372;DHT22;4223;48.724;8.982;2022-07-03T05:51:25;16.60;1.00
8372;DHT22;4223;48.724;8.982;2022-07-03T05:53:52;16.60;1.00
8372;DHT22;4223;48.724;8.982;2022-07-03T05:56:19;16.70;1.00
8372;DHT22;4223;48.724;8.982;2022-07-03T05:58:46;16.80;1.00
8372;DHT22;4223;48.724;8.982;2022-07-03T06:01:13;16.90;1.00
8372;DHT22;4223;48.724;8.982;2022-07-03T06:03:41;16.90;1.00
8372;DHT22;4223;48.724;8.982;2022-07-03T06:06:08;17.10;1.00
8372;DHT22;4223;48.724;8.982;2022-07-03T06:08:36;17.20;1.00
8372;DHT22;4223;48.724;8.982;2022-07-03T06:11:03;17.20;1.00
8372;DHT22;4223;48.724;8.982;2022-07-03T06:13:30;17.30;1.00
8372;DHT22;4223;48.724;8.982;2022-07-03T06:15:56;17.50;1.00
8372;DHT22;4223;48.724;8.982;2022-07-03T06:18:23;17.60;1.00
8372;DHT22;4223;48.724;8.982;2022-07-03T06:20:52;17.70;1.00
8372;DHT22;4223;48.724;8.982;2022-07-03T06:23:18;17.80;99.90
8372;DHT22;4223;48.724;8.982;2022-07-03T06:25:45;18.00;99.90
8372;DHT22;4223;48.724;8.982;2022-07-03T06:28:12;18.10;1.00
8372;DHT22;4223;48.724;8.982;2022-07-03T06:30:39;18.20;1.00
8372;DHT22;4223;48.724;8.982;2022-07-03T06:33:06;18.30;99.90
8372;DHT22;4223;48.724;8.982;2022-07-03T06:35:33;18.40;9.10
8372;DHT22;4223;48.724;8.982;2022-07-03T06:38:02;18.60;99.90
8372;DHT22;4223;48.724;8.982;2022-07-03T06:40:29;18.70;1.00
8372;DHT22;4223;48.724;8.982;2022-07-03T06:42:56;18.80;1.00
8372;DHT22;4223;48.724;8.982;2022-07-03T06:45:23;19.00;1.00
8372;DHT22;4223;48.724;8.982;2022-07-03T06:47:50;19.10;99.90
8372;DHT22;4223;48.724;8.982;2022-07-03T06:50:17;19.20;99.90
8372;DHT22;4223;48.724;8.982;2022-07-03T06:52:44;19.30;99.90
8372;DHT22;4223;48.724;8.982;2022-07-03T06:55:12;19.50;1.00
8372;DHT22;4223;48.724;8.982;2022-07-03T06:57:39;19.60;99.90
8372;DHT22;4223;48.724;8.982;2022-07-03T07:00:07;19.70;99.90
8372;DHT22;4223;48.724;8.982;2022-07-03T07:02:34;19.80;99.90
8372;DHT22;4223;48.724;8.982;2022-07-03T07:05:01;20.00;1.00
8372;DHT22;4223;48.724;8.982;2022-07-03T07:07:28;20.20;99.90
8372;DHT22;4223;48.724;8.982;2022-07-03T07:09:55;20.30;1.00
8372;DHT22;4223;48.724;8.982;2022-07-03T07:12:23;20.40;90.30
8372;DHT22;4223;48.724;8.982;2022-07-03T07:14:51;20.50;1.00
8372;DHT22;4223;48.724;8.982;2022-07-03T07:17:17;20.70;1.00
8372;DHT22;4223;48.724;8.982;2022-07-03T07:19:44;20.90;1.00
8372;DHT22;4223;48.724;8.982;2022-07-03T07:22:11;21.10;1.00
8372;DHT22;4223;48.724;8.982;2022-07-03T07:24:38;21.30;99.90
8372;DHT22;4223;48.724;8.982;2022-07-03T07:27:05;21.50;99.90
8372;DHT22;4223;48.724;8.982;2022-07-03T07:29:33;21.60;99.90
8372;DHT22;4223;48.724;8.982;2022-07-03T07:32:00;21.80;99.90
8372;DHT22;4223;48.724;8.982;2022-07-03T07:34:27;22.00;1.50
8372;DHT22;4223;48.724;8.982;2022-07-03T07:36:53;22.10;1.00
8372;DHT22;4223;48.724;8.982;2022-07-03T07:39:20;22.20;1.00
8372;DHT22;4223;48.724;8.982;2022-07-03T07:41:47;22.30;1.00
8372;DHT22;4223;48.724;8.982;2022-07-03T07:44:14;22.30;1.00
8372;DHT22;4223;48.724;8.982;2022-07-03T07:46:42;22.50;1.00
8372;DHT22;4223;48.724;8.982;2022-07-03T07:49:09;22.70;1.00
8372;DHT22;4223;48.724;8.982;2022-07-03T07:51:36;22.90;1.00
8372;DHT22;4223;48.724;8.982;2022-07-03T07:54:03;23.20;1.00
8372;DHT22;4223;48.724;8.982;2022-07-03T07:56:30;23.40;1.00
8372;DHT22;4223;48.724;8.982;2022-07-03T07:58:57;23.50;1.00
8372;DHT22;4223;48.724;8.982;2022-07-03T08:01:24;23.70;1.00
8372;DHT22;4223;48.724;8.982;2022-07-03T08:04:09;23.90;1.00
8372;DHT22;4223;48.724;8.982;2022-07-03T08:06:54;24.30;99.90
8372;DHT22;4223;48.724;8.982;2022-07-03T08:09:20;25.00;99.90
8372;DHT22;4223;48.724;8.982;2022-07-03T08:11:47;25.60;99.90
8372;DHT22;4223;48.724;8.982;2022-07-03T08:14:14;26.20;99.90
8372;DHT22;4223;48.724;8.982;2022-07-03T08:16:41;26.00;99.90
8372;DHT22;4223;48.724;8.982;2022-07-03T08:19:12;26.40;99.90
8372;DHT22;4223;48.724;8.982;2022-07-03T08:21:38;26.30;99.90
8372;DHT22;4223;48.724;8.982;2022-07-03T08:24:05;26.50;99.90
8372;DHT22;4223;48.724;8.982;2022-07-03T08:26:32;26.70;99.90
8372;DHT22;4223;48.724;8.982;2022-07-03T08:28:59;27.20;99.90
8372;DHT22;4223;48.724;8.982;2022-07-03T08:31:26;27.50;99.90
8372;DHT22;4223;48.724;8.982;2022-07-03T08:33:53;27.30;99.90
8372;DHT22;4223;48.724;8.982;2022-07-03T08:36:21;27.00;99.90
8372;DHT22;4223;48.724;8.982;2022-07-03T08:38:48;27.40;99.90
8372;DHT22;4223;48.724;8.982;2022-07-03T08:41:16;28.10;99.90
8372;DHT22;4223;48.724;8.982;2022-07-03T08:43:45;28.00;99.90
8372;DHT22;4223;48.724;8.982;2022-07-03T08:46:14;27.80;99.90
8372;DHT22;4223;48.724;8.982;2022-07-03T08:48:42;27.50;99.90
8372;DHT22;4223;48.724;8.982;2022-07-03T08:51:11;27.80;99.90
8372;DHT22;4223;48.724;8.982;2022-07-03T08:53:39;27.60;99.90
8372;DHT22;4223;48.724;8.982;2022-07-03T08:56:07;27.60;99.90
8372;DHT22;4223;48.724;8.982;2022-07-03T08:58:34;27.30;99.90
8372;DHT22;4223;48.724;8.982;2022-07-03T09:01:01;28.20;99.90
8372;DHT22;4223;48.724;8.982;2022-07-03T09:03:28;28.40;99.90
8372;DHT22;4223;48.724;8.982;2022-07-03T09:05:57;28.50;99.90
8372;DHT22;4223;48.724;8.982;2022-07-03T09:08:27;28.60;99.90
8372;DHT22;4223;48.724;8.982;2022-07-03T09:10:59;28.10;99.90
8372;DHT22;4223;48.724;8.982;2022-07-03T09:13:27;27.80;99.90
8372;DHT22;4223;48.724;8.982;2022-07-03T09:15:54;28.50;99.90
8372;DHT22;4223;48.724;8.982;2022-07-03T09:18:36;29.00;99.90
8372;DHT22;4223;48.724;8.982;2022-07-03T09:21:05;29.10;99.90
8372;DHT22;4223;48.724;8.982;2022-07-03T09:23:35;28.70;99.90
8372;DHT22;4223;48.724;8.982;2022-07-03T09:26:05;28.60;99.90
8372;DHT22;4223;48.724;8.982;2022-07-03T09:28:43;28.70;99.90
8372;DHT22;4223;48.724;8.982;2022-07-03T09:31:11;28.50;99.90
8372;DHT22;4223;48.724;8.982;2022-07-03T09:33:51;28.50;99.90
8372;DHT22;4223;48.724;8.982;2022-07-03T09:36:20;28.70;99.90
8372;DHT22;4223;48.724;8.982;2022-07-03T09:38:47;29.20;99.90
8372;DHT22;4223;48.724;8.982;2022-07-03T09:41:15;29.10;99.90
8372;DHT22;4223;48.724;8.982;2022-07-03T09:43:43;28.90;99.90
8372;DHT22;4223;48.724;8.982;2022-07-03T09:46:10;29.10;99.90
8372;DHT22;4223;48.724;8.982;2022-07-03T09:48:39;29.40;99.90
8372;DHT22;4223;48.724;8.982;2022-07-03T09:51:14;28.90;99.90
8372;DHT22;4223;48.724;8.982;2022-07-03T09:53:54;28.80;99.90
8372;DHT22;4223;48.724;8.982;2022-07-03T09:56:25;29.00;99.90
8372;DHT22;4223;48.724;8.982;2022-07-03T09:59:00;29.50;99.90
8372;DHT22;4223;48.724;8.982;2022-07-03T10:01:27;29.80;99.90
8372;DHT22;4223;48.724;8.982;2022-07-03T10:03:54;29.90;99.90
8372;DHT22;4223;48.724;8.982;2022-07-03T10:06:54;30.50;99.90
8372;DHT22;4223;48.724;8.982;2022-07-03T10:09:23;30.90;99.90
8372;DHT22;4223;48.724;8.982;2022-07-03T10:11:53;31.30;99.90
8372;DHT22;4223;48.724;8.982;2022-07-03T10:14:22;30.00;99.90
8372;DHT22;4223;48.724;8.982;2022-07-03T10:16:49;29.40;99.90
8372;DHT22;4223;48.724;8.982;2022-07-03T10:19:18;29.40;99.90
8372;DHT22;4223;48.724;8.982;2022-07-03T10:21:50;29.50;99.90
8372;DHT22;4223;48.724;8.982;2022-07-03T10:24:19;29.50;99.90
8372;DHT22;4223;48.724;8.982;2022-07-03T10:26:47;29.70;99.90
8372;DHT22;4223;48.724;8.982;2022-07-03T10:29:16;29.80;99.90
8372;DHT22;4223;48.724;8.982;2022-07-03T10:31:44;29.90;99.90
8372;DHT22;4223;48.724;8.982;2022-07-03T10:34:16;29.90;99.90
8372;DHT22;4223;48.724;8.982;2022-07-03T10:36:43;29.50;99.90
8372;DHT22;4223;48.724;8.982;2022-07-03T10:39:18;29.00;99.90
8372;DHT22;4223;48.724;8.982;2022-07-03T10:41:54;29.00;99.90
8372;DHT22;4223;48.724;8.982;2022-07-03T10:44:51;29.30;99.90
8372;DHT22;4223;48.724;8.982;2022-07-03T10:47:39;29.40;99.90
8372;DHT22;4223;48.724;8.982;2022-07-03T10:50:10;29.90;99.90
8372;DHT22;4223;48.724;8.982;2022-07-03T10:52:38;30.00;99.90
8372;DHT22;4223;48.724;8.982;2022-07-03T10:55:06;29.70;99.90
8372;DHT22;4223;48.724;8.982;2022-07-03T10:57:34;29.70;99.90
8372;DHT22;4223;48.724;8.982;2022-07-03T11:00:18;29.70;99.90
8372;DHT22;4223;48.724;8.982;2022-07-03T11:02:47;29.90;99.90
8372;DHT22;4223;48.724;8.982;2022-07-03T11:05:16;30.00;99.90
8372;DHT22;4223;48.724;8.982;2022-07-03T11:08:05;30.10;99.90
8372;DHT22;4223;48.724;8.982;2022-07-03T11:10:34;30.00;99.90
8372;DHT22;4223;48.724;8.982;2022-07-03T11:13:07;30.20;99.90
8372;DHT22;4223;48.724;8.982;2022-07-03T11:15:39;29.60;99.90
8372;DHT22;4223;48.724;8.982;2022-07-03T11:18:17;29.50;99.90
8372;DHT22;4223;48.724;8.982;2022-07-03T11:27:20;28.90;99.90
8372;DHT22;4223;48.724;8.982;2022-07-03T11:29:56;28.50;99.90
8372;DHT22;4223;48.724;8.982;2022-07-03T11:32:46;28.70;99.90
8372;DHT22;4223;48.724;8.982;2022-07-03T11:35:44;28.50;99.90
8372;DHT22;4223;48.724;8.982;2022-07-03T11:38:15;28.30;99.90
8372;DHT22;4223;48.724;8.982;2022-07-03T11:40:43;28.10;99.90
8372;DHT22;4223;48.724;8.982;2022-07-03T11:43:12;28.30;99.90
8372;DHT22;4223;48.724;8.982;2022-07-03T11:45:39;28.40;99.90
8372;DHT22;4223;48.724;8.982;2022-07-03T11:48:12;28.50;99.90
8372;DHT22;4223;48.724;8.982;2022-07-03T11:50:40;28.50;99.90
8372;DHT22;4223;48.724;8.982;2022-07-03T11:53:21;28.70;99.90
8372;DHT22;4223;48.724;8.982;2022-07-03T11:55:50;28.80;99.90
8372;DHT22;4223;48.724;8.982;2022-07-03T11:58:17;28.70;99.90
8372;DHT22;4223;48.724;8.982;2022-07-03T12:00:44;28.60;99.90
8372;DHT22;4223;48.724;8.982;2022-07-03T12:03:21;28.70;99.90
8372;DHT22;4223;48.724;8.982;2022-07-03T12:05:53;28.60;99.90
8372;DHT22;4223;48.724;8.982;2022-07-03T12:08:25;28.40;99.90
8372;DHT22;4223;48.724;8.982;2022-07-03T12:11:01;27.90;99.90
8372;DHT22;4223;48.724;8.982;2022-07-03T12:13:29;27.90;99.90
8372;DHT22;4223;48.724;8.982;2022-07-03T12:16:04;28.20;99.90
8372;DHT22;4223;48.724;8.982;2022-07-03T12:18:43;28.30;99.90
8372;DHT22;4223;48.724;8.982;2022-07-03T12:21:11;28.30;99.90
8372;DHT22;4223;48.724;8.982;2022-07-03T12:23:45;28.30;99.90
8372;DHT22;4223;48.724;8.982;2022-07-03T12:26:13;28.30;99.90
8372;DHT22;4223;48.724;8.982;2022-07-03T12:28:40;28.40;99.90
8372;DHT22;4223;48.724;8.982;2022-07-03T12:31:06;28.20;99.90
8372;DHT22;4223;48.724;8.982;2022-07-03T12:33:34;28.10;99.90
8372;DHT22;4223;48.724;8.982;2022-07-03T12:36:04;28.30;99.90
8372;DHT22;4223;48.724;8.982;2022-07-03T12:38:31;28.30;99.90
8372;DHT22;4223;48.724;8.982;2022-07-03T12:41:03;28.50;99.90
8372;DHT22;4223;48.724;8.982;2022-07-03T12:43:36;28.40;99.90
8372;DHT22;4223;48.724;8.982;2022-07-03T12:46:18;28.40;99.90
8372;DHT22;4223;48.724;8.982;2022-07-03T12:48:46;28.50;99.90
8372;DHT22;4223;48.724;8.982;2022-07-03T12:51:14;28.40;99.90
8372;DHT22;4223;48.724;8.982;2022-07-03T12:53:41;28.60;99.90
8372;DHT22;4223;48.724;8.982;2022-07-03T12:56:09;28.60;99.90
8372;DHT22;4223;48.724;8.982;2022-07-03T12:58:38;28.40;99.90
8372;DHT22;4223;48.724;8.982;2022-07-03T13:01:24;28.20;99.90
8372;DHT22;4223;48.724;8.982;2022-07-03T13:03:51;27.90;99.90
8372;DHT22;4223;48.724;8.982;2022-07-03T13:06:21;27.90;99.90
8372;DHT22;4223;48.724;8.982;2022-07-03T13:08:50;28.20;99.90
8372;DHT22;4223;48.724;8.982;2022-07-03T13:11:25;28.60;99.90
8372;DHT22;4223;48.724;8.982;2022-07-03T13:13:52;28.80;99.90
8372;DHT22;4223;48.724;8.982;2022-07-03T13:16:24;29.30;99.90
8372;DHT22;4223;48.724;8.982;2022-07-03T13:18:58;29.40;99.90
8372;DHT22;4223;48.724;8.982;2022-07-03T13:21:26;29.10;99.90
8372;DHT22;4223;48.724;8.982;2022-07-03T13:23:53;29.00;99.90
8372;DHT22;4223;48.724;8.982;2022-07-03T13:26:20;28.90;99.90
8372;DHT22;4223;48.724;8.982;2022-07-03T13:28:47;28.90;99.90
8372;DHT22;4223;48.724;8.982;2022-07-03T13:31:14;29.20;99.90
8372;DHT22;4223;48.724;8.982;2022-07-03T13:33:41;29.20;99.90
8372;DHT22;4223;48.724;8.982;2022-07-03T13:36:08;29.20;99.90
8372;DHT22;4223;48.724;8.982;2022-07-03T13:38:36;28.90;99.90
8372;DHT22;4223;48.724;8.982;2022-07-03T13:41:03;28.70;99.90
8372;DHT22;4223;48.724;8.982;2022-07-03T13:43:30;28.50;99.90
8372;DHT22;4223;48.724;8.982;2022-07-03T13:45:57;28.20;99.90
8372;DHT22;4223;48.724;8.982;2022-07-03T13:48:24;28.50;99.90
8372;DHT22;4223;48.724;8.982;2022-07-03T13:50:50;28.70;99.90
8372;DHT22;4223;48.724;8.982;2022-07-03T13:53:17;28.50;99.90
8372;DHT22;4223;48.724;8.982;2022-07-03T13:55:46;28.10;99.90
8372;DHT22;4223;48.724;8.982;2022-07-03T13:58:13;28.20;99.90
8372;DHT22;4223;48.724;8.982;2022-07-03T14:00:39;28.30;99.90
8372;DHT22;4223;48.724;8.982;2022-07-03T14:03:06;28.20;99.90
8372;DHT22;4223;48.724;8.982;2022-07-03T14:05:34;28.20;99.90
8372;DHT22;4223;48.724;8.982;2022-07-03T14:08:01;28.20;99.90
8372;DHT22;4223;48.724;8.982;2022-07-03T14:10:28;28.40;99.90
8372;DHT22;4223;48.724;8.982;2022-07-03T14:12:56;28.40;99.90
8372;DHT22;4223;48.724;8.982;2022-07-03T14:15:23;28.30;99.90
8372;DHT22;4223;48.724;8.982;2022-07-03T14:17:50;28.30;99.90
8372;DHT22;4223;48.724;8.982;2022-07-03T14:20:17;28.50;99.90
8372;DHT22;4223;48.724;8.982;2022-07-03T14:22:43;28.60;99.90
8372;DHT22;4223;48.724;8.982;2022-07-03T14:25:11;28.50;99.90
8372;DHT22;4223;48.724;8.982;2022-07-03T14:27:38;28.70;99.90
8372;DHT22;4223;48.724;8.982;2022-07-03T14:30:23;28.50;99.90
8372;DHT22;4223;48.724;8.982;2022-07-03T14:33:08;28.50;99.90
8372;DHT22;4223;48.724;8.982;2022-07-03T14:35:35;28.50;99.90
8372;DHT22;4223;48.724;8.982;2022-07-03T14:38:03;28.50;99.90
8372;DHT22;4223;48.724;8.982;2022-07-03T14:40:30;28.40;99.90
8372;DHT22;4223;48.724;8.982;2022-07-03T14:42:57;28.40;99.90
8372;DHT22;4223;48.724;8.982;2022-07-03T14:45:25;28.30;99.90
8372;DHT22;4223;48.724;8.982;2022-07-03T14:47:52;28.20;99.90
8372;DHT22;4223;48.724;8.982;2022-07-03T14:50:19;28.30;99.90
8372;DHT22;4223;48.724;8.982;2022-07-03T14:52:46;28.40;99.90
8372;DHT22;4223;48.724;8.982;2022-07-03T14:55:13;28.40;99.90
8372;DHT22;4223;48.724;8.982;2022-07-03T14:57:49;28.30;99.90
8372;DHT22;4223;48.724;8.982;2022-07-03T15:00:17;28.20;99.90
8372;DHT22;4223;48.724;8.982;2022-07-03T15:02:49;28.20;99.90
8372;DHT22;4223;48.724;8.982;2022-07-03T15:05:17;28.10;99.90
8372;DHT22;4223;48.724;8.982;2022-07-03T15:07:54;28.10;99.90
8372;DHT22;4223;48.724;8.982;2022-07-03T15:10:24;28.10;99.90
8372;DHT22;4223;48.724;8.982;2022-07-03T15:12:53;28.00;99.90
8372;DHT22;4223;48.724;8.982;2022-07-03T15:15:21;28.00;99.90
8372;DHT22;4223;48.724;8.982;2022-07-03T15:17:52;28.00;99.90
8372;DHT22;4223;48.724;8.982;2022-07-03T15:20:19;28.00;99.90
8372;DHT22;4223;48.724;8.982;2022-07-03T15:22:47;28.10;99.90
8372;DHT22;4223;48.724;8.982;2022-07-03T15:25:16;28.10;99.90
8372;DHT22;4223;48.724;8.982;2022-07-03T15:27:48;28.10;99.90
8372;DHT22;4223;48.724;8.982;2022-07-03T15:30:16;28.10;99.90
8372;DHT22;4223;48.724;8.982;2022-07-03T15:32:45;28.10;99.90
8372;DHT22;4223;48.724;8.982;2022-07-03T15:35:13;28.10;99.90
8372;DHT22;4223;48.724;8.982;2022-07-03T15:37:56;28.00;99.90
8372;DHT22;4223;48.724;8.982;2022-07-03T15:40:32;28.00;99.90
8372;DHT22;4223;48.724;8.982;2022-07-03T15:43:15;28.10;99.90
8372;DHT22;4223;48.724;8.982;2022-07-03T15:45:53;28.10;99.90
8372;DHT22;4223;48.724;8.982;2022-07-03T15:48:28;28.10;99.90
8372;DHT22;4223;48.724;8.982;2022-07-03T15:51:05;28.00;99.90
8372;DHT22;4223;48.724;8.982;2022-07-03T15:53:37;27.80;99.90
8372;DHT22;4223;48.724;8.982;2022-07-03T15:56:06;27.80;99.90
8372;DHT22;4223;48.724;8.982;2022-07-03T15:58:34;28.00;99.90
8372;DHT22;4223;48.724;8.982;2022-07-03T16:01:07;28.10;99.90
8372;DHT22;4223;48.724;8.982;2022-07-03T16:03:57;27.90;99.90
8372;DHT22;4223;48.724;8.982;2022-07-03T16:06:26;27.80;99.90
8372;DHT22;4223;48.724;8.982;2022-07-03T16:08:54;27.80;99.90
8372;DHT22;4223;48.724;8.982;2022-07-03T16:11:21;27.90;99.90
8372;DHT22;4223;48.724;8.982;2022-07-03T16:13:49;27.70;99.90
8372;DHT22;4223;48.724;8.982;2022-07-03T16:16:20;27.60;99.90
8372;DHT22;4223;48.724;8.982;2022-07-03T16:18:48;27.80;99.90
8372;DHT22;4223;48.724;8.982;2022-07-03T16:21:17;28.10;99.90
8372;DHT22;4223;48.724;8.982;2022-07-03T16:23:48;27.90;99.90
8372;DHT22;4223;48.724;8.982;2022-07-03T16:26:16;27.90;99.90
8372;DHT22;4223;48.724;8.982;2022-07-03T16:28:43;27.70;99.90